Time;durP1;ratioP1;P1;durP2;ratioP2;P2;SDS_P1;SDS_P2;PMS_P1;PMS_P2;Temp;Humidity;BMP_temperature;BMP_pressure;BME280_temperature;BME280_humidity;BME280_pressure;Samples;Min_cycle;Max_cycle;Signal;HPM_P1;HPM_P2
2023/03/20 00:00:24;;;;;;;1.30;1.17;;;9.90;99.90;;;;;;5811058;24;20289;-73
2023/03/20 00:02:52;;;;;;;2.00;1.90;;;9.90;99.90;;;;;;5787829;24;20207;-73
2023/03/20 00:05:23;;;;;;;1.60;1.42;;;9.90;99.90;;;;;;5794535;24;20229;-73
2023/03/20 00:07:50;;;;;;;1.67;1.50;;;9.90;99.90;;;;;;5800411;24;20229;-73
2023/03/20 00:10:19;;;;;;;1.80;1.70;;;9.90;99.90;;;;;;5813055;24;20203;-74
2023/03/20 00:12:50;;;;;;;1.52;1.42;;;9.80;99.90;;;;;;5813221;24;20206;-74
2023/03/20 00:15:35;;;;;;;1.70;1.10;;;9.90;99.90;;;;;;5814198;24;20644;-74
2023/03/20 00:18:02;;;;;;;1.30;1.20;;;9.90;99.90;;;;;;5807756;24;20210;-74
2023/03/20 00:20:29;;;;;;;1.27;1.17;;;9.90;99.90;;;;;;5812663;24;20255;-74
2023/03/20 00:22:56;;;;;;;1.10;1.00;;;9.90;99.90;;;;;;5812298;24;20195;-74
2023/03/20 00:25:25;;;;;;;1.60;1.20;;;10.00;99.90;;;;;;5812636;24;20267;-74
2023/03/20 00:27:55;;;;;;;1.00;1.00;;;9.90;99.90;;;;;;5813841;24;20194;-74
2023/03/20 00:30:28;;;;;;;0.90;0.90;;;10.00;99.90;;;;;;5813296;24;20198;-74
2023/03/20 00:32:58;;;;;;;1.60;1.25;;;9.90;99.90;;;;;;5811823;24;20194;-74
2023/03/20 00:35:28;;;;;;;1.63;1.52;;;10.00;99.90;;;;;;5809840;24;20214;-74
2023/03/20 00:37:56;;;;;;;1.10;1.08;;;9.90;99.90;;;;;;5805369;24;20196;-74
2023/03/20 00:40:29;;;;;;;1.10;1.00;;;10.20;99.90;;;;;;5799899;24;20229;-74
2023/03/20 00:43:00;;;;;;;1.20;1.10;;;9.90;99.90;;;;;;5799527;24;20552;-74
2023/03/20 00:45:28;;;;;;;1.30;1.10;;;9.90;99.90;;;;;;5801398;24;20219;-74
2023/03/20 00:47:57;;;;;;;1.30;1.20;;;9.90;99.90;;;;;;5813612;24;20198;-74
2023/03/20 00:50:27;;;;;;;1.05;1.05;;;9.90;99.90;;;;;;5803978;24;20234;-74
2023/03/20 00:52:55;;;;;;;1.20;1.10;;;9.90;99.90;;;;;;5790568;24;20600;-74
2023/03/20 00:55:25;;;;;;;1.60;1.50;;;9.60;99.90;;;;;;5813624;24;20222;-74
2023/03/20 00:57:55;;;;;;;1.27;1.20;;;9.90;99.90;;;;;;5803557;24;20218;-74
2023/03/20 01:00:38;;;;;;;1.30;1.20;;;10.20;99.90;;;;;;5808067;24;20688;-74
2023/03/20 01:03:14;;;;;;;1.70;1.40;;;9.90;99.90;;;;;;5813520;24;20218;-74
2023/03/20 01:05:41;;;;;;;1.65;1.55;;;9.90;99.90;;;;;;5810944;24;20217;-74
2023/03/20 01:08:14;;;;;;;1.80;1.70;;;9.90;99.90;;;;;;5813342;24;20591;-74
2023/03/20 01:10:43;;;;;;;1.65;1.55;;;9.90;99.90;;;;;;5799361;24;20195;-74
2023/03/20 01:13:19;;;;;;;1.75;1.65;;;9.90;99.90;;;;;;5793165;24;20198;-74
2023/03/20 01:15:49;;;;;;;2.00;1.90;;;9.80;99.90;;;;;;5813142;24;20762;-74
2023/03/20 01:18:17;;;;;;;2.00;1.90;;;9.80;99.90;;;;;;5810207;24;20226;-74
2023/03/20 01:20:45;;;;;;;2.00;1.90;;;9.80;99.90;;;;;;5813526;24;20195;-74
2023/03/20 01:23:12;;;;;;;1.90;1.80;;;9.80;99.90;;;;;;5812723;24;20278;-74
2023/03/20 01:25:40;;;;;;;2.40;2.05;;;9.80;99.90;;;;;;5811242;24;20301;-73
2023/03/20 01:28:14;;;;;;;2.75;2.47;;;9.80;99.90;;;;;;5794130;24;20535;-73
2023/03/20 01:30:42;;;;;;;2.00;1.90;;;9.80;99.90;;;;;;5787953;24;20290;-74
2023/03/20 01:33:15;;;;;;;2.50;2.30;;;9.80;99.90;;;;;;5794084;24;20241;-74
2023/03/20 01:35:44;;;;;;;2.97;2.20;;;9.80;99.90;;;;;;5812030;24;20289;-74
2023/03/20 01:38:18;;;;;;;2.00;1.90;;;9.90;99.90;;;;;;5812905;24;20202;-73
2023/03/20 01:40:53;;;;;;;2.00;1.90;;;9.90;99.90;;;;;;5813245;24;20198;-74
2023/03/20 01:43:24;;;;;;;2.47;2.28;;;9.90;99.90;;;;;;5813091;24;20251;-74
2023/03/20 01:45:58;;;;;;;2.35;2.17;;;9.90;99.90;;;;;;5813493;24;20219;-74
2023/03/20 01:48:36;;;;;;;2.08;1.98;;;9.90;99.90;;;;;;5811732;24;20282;-74
2023/03/20 01:51:04;;;;;;;2.67;2.20;;;9.90;99.90;;;;;;5812513;24;20194;-74
2023/03/20 01:53:31;;;;;;;2.22;2.10;;;9.90;99.90;;;;;;5811612;24;20277;-74
2023/03/20 01:56:00;;;;;;;2.70;2.10;;;9.90;99.90;;;;;;5794858;24;20243;-74
2023/03/20 01:58:36;;;;;;;2.25;2.05;;;9.90;99.90;;;;;;5808593;24;20210;-74
2023/03/20 02:01:05;;;;;;;2.47;2.28;;;9.90;99.90;;;;;;5813492;24;20198;-74
2023/03/20 02:03:34;;;;;;;2.63;2.30;;;9.90;99.90;;;;;;5811082;24;20308;-74
2023/03/20 02:06:02;;;;;;;2.63;2.53;;;9.90;99.90;;;;;;5812626;24;20234;-74
2023/03/20 02:08:30;;;;;;;3.00;2.70;;;9.90;99.90;;;;;;5810982;24;20674;-74
2023/03/20 02:11:00;;;;;;;2.50;2.40;;;10.00;99.90;;;;;;5801253;24;20195;-74
2023/03/20 02:13:31;;;;;;;2.50;2.30;;;10.00;99.90;;;;;;5812342;24;20201;-74
2023/03/20 02:16:03;;;;;;;2.53;2.33;;;10.00;99.90;;;;;;5812293;24;20218;-74
2023/03/20 02:18:33;;;;;;;2.38;2.17;;;10.00;99.90;;;;;;5812339;24;21062;-74
2023/03/20 02:21:47;;;;;;;2.10;2.00;;;10.00;99.90;;;;;;5812703;24;20249;-74
2023/03/20 02:24:54;;;;;;;2.53;2.35;;;9.80;99.90;;;;;;5810338;24;20206;-74
2023/03/20 02:27:32;;;;;;;2.55;2.35;;;10.10;99.90;;;;;;5794293;24;20223;-74
2023/03/20 02:30:20;;;;;;;2.70;2.50;;;10.10;99.90;;;;;;5790802;24;20199;-74
2023/03/20 02:33:21;;;;;;;2.90;2.70;;;10.10;99.90;;;;;;5809865;24;20234;-74
2023/03/20 02:36:21;;;;;;;3.15;2.65;;;10.10;99.90;;;;;;5814591;24;20727;-74
2023/03/20 02:39:06;;;;;;;2.70;2.50;;;10.10;99.90;;;;;;5813876;24;20195;-74
2023/03/20 02:41:40;;;;;;;2.80;2.60;;;10.20;99.90;;;;;;5814427;24;20191;-74
2023/03/20 02:44:13;;;;;;;3.15;2.60;;;10.20;99.90;;;;;;5812685;24;20214;-74
2023/03/20 02:46:52;;;;;;;3.10;2.78;;;10.40;99.90;;;;;;5799019;24;20316;-74
2023/03/20 02:49:33;;;;;;;2.65;2.45;;;10.40;99.90;;;;;;5803275;24;20590;-73
2023/03/20 02:52:08;;;;;;;2.45;2.25;;;10.00;99.90;;;;;;5810781;24;20277;-74
2023/03/20 02:54:44;;;;;;;2.80;2.60;;;10.00;99.90;;;;;;5807503;24;20244;-74
2023/03/20 02:57:19;;;;;;;2.35;2.20;;;10.00;99.90;;;;;;5812990;24;20614;-74
2023/03/20 02:59:53;;;;;;;2.75;2.55;;;10.00;99.90;;;;;;5810372;24;20301;-74
2023/03/20 03:02:27;;;;;;;2.38;2.17;;;10.00;99.90;;;;;;5799863;24;20665;-74
2023/03/20 03:04:59;;;;;;;2.63;2.53;;;10.00;99.90;;;;;;5812089;24;20710;-74
2023/03/20 03:07:31;;;;;;;2.00;1.90;;;9.90;99.90;;;;;;5814396;24;20640;-74
2023/03/20 03:10:05;;;;;;;2.05;1.92;;;9.90;99.90;;;;;;5814694;24;20195;-74
2023/03/20 03:12:36;;;;;;;1.83;1.70;;;9.80;99.90;;;;;;5812176;24;20253;-74
2023/03/20 03:15:07;;;;;;;2.10;1.83;;;9.70;99.90;;;;;;5798106;24;20218;-74
2023/03/20 03:17:36;;;;;;;2.17;2.08;;;9.70;99.90;;;;;;5813007;24;20228;-74
2023/03/20 03:20:09;;;;;;;1.88;1.77;;;9.70;99.90;;;;;;5812615;24;20849;-74
2023/03/20 03:22:36;;;;;;;1.50;1.40;;;9.90;99.90;;;;;;5812661;24;20747;-74
2023/03/20 03:25:06;;;;;;;2.22;2.03;;;9.60;99.90;;;;;;5815021;24;20279;-74
2023/03/20 03:27:37;;;;;;;1.60;1.50;;;9.60;99.90;;;;;;5810825;24;20203;-74
2023/03/20 03:30:10;;;;;;;1.35;1.25;;;9.60;99.90;;;;;;5801610;24;20231;-74
2023/03/20 03:32:44;;;;;;;1.35;1.25;;;9.60;99.90;;;;;;5813026;24;20194;-74
2023/03/20 03:35:16;;;;;;;1.50;1.40;;;9.60;99.90;;;;;;5813192;24;20227;-74
2023/03/20 03:37:54;;;;;;;1.92;1.40;;;9.50;99.90;;;;;;5812993;24;20218;-74
2023/03/20 03:40:32;;;;;;;1.60;1.50;;;9.50;99.90;;;;;;5814619;24;20237;-74
2023/03/20 03:43:04;;;;;;;2.08;1.20;;;9.50;99.90;;;;;;5811141;24;20717;-74
2023/03/20 03:45:34;;;;;;;1.48;1.38;;;9.50;99.90;;;;;;5813111;24;20218;-74
2023/03/20 03:48:08;;;;;;;1.30;1.20;;;9.50;99.90;;;;;;5812763;24;20608;-74
2023/03/20 03:50:40;;;;;;;1.23;1.13;;;9.50;99.90;;;;;;5814071;24;20668;-74
2023/03/20 03:53:12;;;;;;;1.30;1.20;;;9.50;99.90;;;;;;5812701;24;20277;-74
2023/03/20 03:55:44;;;;;;;1.50;1.40;;;9.80;99.90;;;;;;5814388;24;20211;-74
2023/03/20 03:58:17;;;;;;;1.40;1.30;;;9.50;99.90;;;;;;5787842;24;20686;-74
2023/03/20 04:00:49;;;;;;;1.40;1.30;;;9.00;99.90;;;;;;5810803;24;20756;-74
2023/03/20 04:03:21;;;;;;;1.48;1.20;;;9.50;99.90;;;;;;5812522;24;20210;-74
2023/03/20 04:05:51;;;;;;;1.63;1.20;;;9.40;99.90;;;;;;5814492;24;20257;-74
2023/03/20 04:08:19;;;;;;;2.75;1.38;;;9.40;99.90;;;;;;5813517;24;20604;-74
2023/03/20 04:10:47;;;;;;;1.23;1.13;;;9.40;99.90;;;;;;5813149;24;20627;-74
2023/03/20 04:13:15;;;;;;;1.30;1.20;;;9.40;99.90;;;;;;5810680;24;20195;-74
2023/03/20 04:15:42;;;;;;;1.20;1.10;;;9.40;99.90;;;;;;5812337;24;20272;-74
2023/03/20 04:18:15;;;;;;;1.30;1.20;;;9.40;99.90;;;;;;5812899;24;20251;-74
2023/03/20 04:20:43;;;;;;;1.50;1.40;;;9.40;99.90;;;;;;5814574;24;20278;-74
2023/03/20 04:23:10;;;;;;;1.33;1.23;;;9.40;99.90;;;;;;5813180;24;20195;-74
2023/03/20 04:25:37;;;;;;;1.83;1.70;;;9.40;99.90;;;;;;5813258;24;20756;-74
2023/03/20 04:28:05;;;;;;;1.30;1.20;;;9.40;99.90;;;;;;5810387;24;20214;-74
2023/03/20 04:30:33;;;;;;;1.40;1.30;;;9.40;99.90;;;;;;5813394;24;20292;-74
2023/03/20 04:33:00;;;;;;;1.48;1.30;;;9.80;99.90;;;;;;5812112;24;20202;-74
2023/03/20 04:35:27;;;;;;;1.40;1.30;;;9.70;99.90;;;;;;5813299;24;20226;-74
2023/03/20 04:37:54;;;;;;;1.58;1.20;;;9.40;99.90;;;;;;5811645;24;20203;-74
2023/03/20 04:40:21;;;;;;;1.60;1.08;;;9.70;99.90;;;;;;5811030;24;20494;-74
2023/03/20 04:42:48;;;;;;;1.40;0.90;;;9.50;99.90;;;;;;5810877;24;20203;-74
2023/03/20 04:45:17;;;;;;;1.20;1.10;;;9.80;99.90;;;;;;5797746;24;20227;-74
2023/03/20 04:47:44;;;;;;;1.15;1.02;;;9.80;99.90;;;;;;5802119;24;20199;-74
2023/03/20 04:50:12;;;;;;;1.20;0.90;;;9.60;99.90;;;;;;5789283;24;20203;-74
2023/03/20 04:52:39;;;;;;;1.10;1.00;;;9.60;99.90;;;;;;5810510;24;20195;-73
2023/03/20 04:55:07;;;;;;;1.20;1.10;;;9.60;99.90;;;;;;5805145;24;20219;-74
2023/03/20 04:57:35;;;;;;;1.25;1.15;;;9.60;99.90;;;;;;5804709;24;20266;-74
2023/03/20 05:00:03;;;;;;;1.40;1.30;;;9.40;99.90;;;;;;5811335;24;20664;-74
2023/03/20 05:02:31;;;;;;;1.20;1.10;;;9.60;99.90;;;;;;5811759;24;20676;-74
2023/03/20 05:04:58;;;;;;;1.20;1.10;;;9.50;99.90;;;;;;5810179;24;20227;-74
2023/03/20 05:07:25;;;;;;;1.10;1.00;;;9.60;99.90;;;;;;5787971;24;20198;-74
2023/03/20 05:09:52;;;;;;;1.25;1.15;;;9.50;99.90;;;;;;5809696;24;20233;-74
2023/03/20 05:12:19;;;;;;;1.40;1.10;;;9.50;99.90;;;;;;5810996;24;20281;-74
2023/03/20 05:14:46;;;;;;;1.23;1.13;;;9.50;99.90;;;;;;5806201;24;20970;-74
2023/03/20 05:17:13;;;;;;;1.00;1.00;;;9.50;99.90;;;;;;5803352;24;20736;-74
2023/03/20 05:19:42;;;;;;;1.10;1.00;;;9.50;99.90;;;;;;5810149;24;20228;-73
2023/03/20 05:22:09;;;;;;;1.20;1.10;;;9.50;99.90;;;;;;5813696;24;20202;-74
2023/03/20 05:24:36;;;;;;;1.33;1.23;;;9.50;99.90;;;;;;5806509;24;20701;-73
2023/03/20 05:27:03;;;;;;;2.60;1.45;;;9.50;99.90;;;;;;5814610;24;20199;-74
2023/03/20 05:29:30;;;;;;;2.40;1.40;;;9.50;99.90;;;;;;5813777;24;20710;-73
2023/03/20 05:31:57;;;;;;;1.20;1.10;;;9.50;99.90;;;;;;5811955;24;20201;-73
2023/03/20 05:34:24;;;;;;;1.25;1.15;;;9.50;99.90;;;;;;5811611;24;20301;-74
2023/03/20 05:36:52;;;;;;;1.30;1.20;;;9.50;99.90;;;;;;5814224;24;20191;-73
2023/03/20 05:39:20;;;;;;;1.10;1.00;;;9.50;99.90;;;;;;5810728;24;20612;-73
2023/03/20 05:41:49;;;;;;;2.28;1.40;;;9.40;99.90;;;;;;5807283;24;21170;-75
2023/03/20 05:44:16;;;;;;;1.90;1.80;;;9.40;99.90;;;;;;5802293;24;20731;-74
2023/03/20 05:46:43;;;;;;;1.70;1.60;;;9.30;99.90;;;;;;5799202;24;20206;-72
2023/03/20 05:49:10;;;;;;;1.63;1.50;;;9.30;99.90;;;;;;5810996;24;20223;-75
2023/03/20 05:51:37;;;;;;;1.33;1.23;;;9.40;99.90;;;;;;5813984;24;20202;-75
2023/03/20 05:54:06;;;;;;;1.67;1.58;;;9.40;99.90;;;;;;5812181;24;20226;-75
2023/03/20 05:56:33;;;;;;;1.70;1.60;;;9.40;99.90;;;;;;5791491;24;20565;-76
2023/03/20 05:59:01;;;;;;;1.40;1.30;;;9.40;99.90;;;;;;5795832;24;20273;-76
2023/03/20 06:01:28;;;;;;;1.35;1.25;;;9.40;99.90;;;;;;5797338;24;20696;-75
2023/03/20 06:03:55;;;;;;;1.10;1.00;;;9.40;99.90;;;;;;5802538;24;20293;-75
2023/03/20 06:06:22;;;;;;;1.58;1.40;;;9.40;99.90;;;;;;5801230;24;21188;-74
2023/03/20 06:08:49;;;;;;;1.50;1.40;;;9.40;99.90;;;;;;5787347;24;20724;-75
2023/03/20 06:11:18;;;;;;;1.35;1.10;;;9.40;99.90;;;;;;5807504;24;20731;-76
2023/03/20 06:13:45;;;;;;;1.42;1.30;;;9.40;99.90;;;;;;5801714;24;20287;-76
2023/03/20 06:16:12;;;;;;;1.52;1.33;;;9.40;99.90;;;;;;5795500;24;20290;-77
2023/03/20 06:18:39;;;;;;;1.50;1.40;;;9.50;99.90;;;;;;5798741;24;20274;-80
2023/03/20 06:21:08;;;;;;;2.60;1.67;;;9.50;99.90;;;;;;5807435;24;20222;-80
2023/03/20 06:23:35;;;;;;;1.65;1.40;;;9.60;99.90;;;;;;5812488;24;20195;-78
2023/03/20 06:26:02;;;;;;;1.20;1.10;;;9.70;99.90;;;;;;5811797;24;20268;-74
2023/03/20 06:28:30;;;;;;;1.52;1.42;;;9.80;99.90;;;;;;5797213;24;20229;-75
2023/03/20 06:30:57;;;;;;;1.25;1.13;;;9.90;99.90;;;;;;5792579;24;20195;-75
2023/03/20 06:33:25;;;;;;;1.30;1.20;;;9.90;99.90;;;;;;5812907;24;20195;-74
2023/03/20 06:35:51;;;;;;;1.65;1.30;;;9.90;99.90;;;;;;5807848;24;20242;-78
2023/03/20 06:38:18;;;;;;;1.60;1.50;;;10.00;99.90;;;;;;5798768;24;20192;-79
2023/03/20 06:40:46;;;;;;;1.35;1.25;;;10.00;99.90;;;;;;5806664;24;20217;-76
2023/03/20 06:43:13;;;;;;;1.48;1.38;;;10.00;99.90;;;;;;5805575;24;20197;-75
2023/03/20 06:45:41;;;;;;;1.50;1.40;;;10.00;99.90;;;;;;5809246;24;20611;-76
2023/03/20 06:48:10;;;;;;;1.55;1.40;;;10.00;99.90;;;;;;5804438;24;20191;-76
2023/03/20 06:50:37;;;;;;;1.50;1.40;;;10.00;99.90;;;;;;5792868;24;20198;-75
2023/03/20 06:53:04;;;;;;;1.50;1.40;;;10.00;99.90;;;;;;5785339;24;20194;-76
2023/03/20 06:55:31;;;;;;;1.40;1.30;;;9.90;99.90;;;;;;5801138;24;20221;-76
2023/03/20 06:57:58;;;;;;;1.73;1.40;;;9.90;99.90;;;;;;5788663;24;20218;-76
2023/03/20 07:00:26;;;;;;;1.50;1.38;;;9.90;99.90;;;;;;5786945;24;20278;-76
2023/03/20 07:02:54;;;;;;;1.52;1.35;;;10.00;99.90;;;;;;5793894;24;20770;-77
2023/03/20 07:05:21;;;;;;;1.35;1.25;;;10.00;99.90;;;;;;5796121;24;20219;-76
2023/03/20 07:07:56;;;;;;;1.33;1.23;;;10.20;99.90;;;;;;5791826;24;20267;-76
2023/03/20 07:10:24;;;;;;;1.23;1.13;;;10.10;99.90;;;;;;5790355;24;20198;-76
2023/03/20 07:12:51;;;;;;;1.35;1.17;;;10.20;99.90;;;;;;5792945;24;20199;-76
2023/03/20 07:15:19;;;;;;;1.75;1.63;;;10.20;99.90;;;;;;5795402;24;20213;-76
2023/03/20 07:17:46;;;;;;;3.13;1.30;;;10.20;99.90;;;;;;5794231;24;20195;-76
2023/03/20 07:20:15;;;;;;;2.33;1.50;;;10.40;99.90;;;;;;5800996;24;20195;-77
2023/03/20 07:22:42;;;;;;;1.20;1.10;;;10.50;99.90;;;;;;5804481;24;20314;-76
2023/03/20 07:25:11;;;;;;;1.75;1.25;;;10.40;99.90;;;;;;5807974;24;20281;-76
2023/03/20 07:27:39;;;;;;;1.63;1.23;;;10.50;99.90;;;;;;5812799;24;20247;-76
2023/03/20 07:30:08;;;;;;;1.20;1.10;;;10.50;99.90;;;;;;5812494;24;20618;-73
2023/03/20 07:32:35;;;;;;;1.40;1.30;;;10.50;99.90;;;;;;5812253;24;20629;-73
2023/03/20 07:35:03;;;;;;;2.00;1.25;;;10.50;99.90;;;;;;5800648;24;20218;-72
2023/03/20 07:37:32;;;;;;;1.20;1.10;;;10.40;99.90;;;;;;5811769;24;20250;-72
2023/03/20 07:39:59;;;;;;;1.35;1.25;;;10.40;99.90;;;;;;5808828;24;20198;-72
2023/03/20 07:42:26;;;;;;;1.25;1.15;;;10.50;99.90;;;;;;5821963;24;20269;-73
2023/03/20 07:44:53;;;;;;;1.30;1.20;;;10.50;99.90;;;;;;5814458;24;20214;-73
2023/03/20 07:47:20;;;;;;;2.20;1.30;;;10.50;99.90;;;;;;5800516;24;20198;-74
2023/03/20 07:49:47;;;;;;;2.17;1.10;;;10.60;99.90;;;;;;5803501;24;20199;-73
2023/03/20 07:52:16;;;;;;;2.78;1.30;;;10.70;99.90;;;;;;5807047;24;20194;-72
2023/03/20 07:54:44;;;;;;;2.60;1.50;;;10.80;99.90;;;;;;5796114;24;20246;-73
2023/03/20 07:57:11;;;;;;;1.20;1.10;;;10.80;99.90;;;;;;5808640;24;20251;-73
2023/03/20 07:59:38;;;;;;;1.88;1.42;;;10.80;99.90;;;;;;5808002;24;20195;-73
2023/03/20 08:02:05;;;;;;;1.67;1.40;;;10.90;99.90;;;;;;5802407;24;20218;-73
2023/03/20 08:04:32;;;;;;;1.70;1.60;;;10.90;99.90;;;;;;5797674;24;20577;-72
2023/03/20 08:06:59;;;;;;;1.50;1.40;;;11.10;99.90;;;;;;5805263;24;20288;-73
2023/03/20 08:09:26;;;;;;;1.37;1.27;;;11.20;99.90;;;;;;5815130;24;20191;-73
2023/03/20 08:11:55;;;;;;;1.55;1.42;;;11.30;99.90;;;;;;5793433;24;20513;-72
2023/03/20 08:14:22;;;;;;;1.50;1.40;;;11.40;99.90;;;;;;5803400;24;20281;-73
2023/03/20 08:16:49;;;;;;;1.55;1.45;;;11.40;99.90;;;;;;5807035;24;20569;-73
2023/03/20 08:19:16;;;;;;;2.67;1.45;;;11.40;99.90;;;;;;5798920;24;22727;-73
2023/03/20 08:21:43;;;;;;;4.75;1.40;;;11.40;99.90;;;;;;5804699;24;20262;-73
2023/03/20 08:24:11;;;;;;;1.85;1.40;;;11.40;99.90;;;;;;5804240;24;20289;-72
2023/03/20 08:26:38;;;;;;;1.30;1.20;;;11.30;99.90;;;;;;5809136;24;20254;-73
2023/03/20 08:29:07;;;;;;;1.20;1.10;;;11.40;99.90;;;;;;5803771;24;20230;-73
2023/03/20 08:31:34;;;;;;;1.63;1.52;;;11.30;99.90;;;;;;5800740;24;20270;-73
2023/03/20 08:34:01;;;;;;;1.95;1.20;;;11.40;99.90;;;;;;5801983;24;20286;-74
2023/03/20 08:36:28;;;;;;;2.40;2.30;;;11.60;99.90;;;;;;5820834;24;20191;-73
2023/03/20 08:38:55;;;;;;;1.87;1.70;;;11.60;99.90;;;;;;5808978;24;20234;-73
2023/03/20 08:41:22;;;;;;;1.52;1.40;;;11.70;99.90;;;;;;5802046;24;20567;-73
2023/03/20 08:43:49;;;;;;;1.60;1.43;;;11.80;99.90;;;;;;5809003;24;20660;-76
2023/03/20 08:46:18;;;;;;;2.00;1.70;;;11.80;99.90;;;;;;5803652;24;20474;-73
2023/03/20 08:48:45;;;;;;;1.40;1.30;;;11.90;99.90;;;;;;5800077;24;20191;-74
2023/03/20 08:51:12;;;;;;;1.70;1.60;;;12.00;99.90;;;;;;5806805;24;20275;-73
2023/03/20 08:53:39;;;;;;;1.83;1.73;;;12.10;99.90;;;;;;5805917;24;20448;-73
2023/03/20 08:56:07;;;;;;;1.80;1.70;;;12.20;99.90;;;;;;5797242;24;20448;-73
2023/03/20 08:58:34;;;;;;;2.00;1.90;;;12.50;99.90;;;;;;5809739;24;20735;-73
2023/03/20 09:01:04;;;;;;;2.00;1.90;;;12.60;99.90;;;;;;5823630;24;21175;-73
2023/03/20 09:03:32;;;;;;;2.20;2.10;;;12.90;99.90;;;;;;5807498;24;20454;-74
2023/03/20 09:06:00;;;;;;;2.03;1.93;;;13.40;99.90;;;;;;5812636;24;20514;-73
2023/03/20 09:08:27;;;;;;;2.60;1.73;;;13.60;99.90;;;;;;5806214;24;20439;-73
2023/03/20 09:10:54;;;;;;;2.00;1.90;;;13.70;99.90;;;;;;5795000;24;20846;-73
2023/03/20 09:13:22;;;;;;;2.30;2.20;;;13.90;99.90;;;;;;5810083;24;20448;-73
2023/03/20 09:15:50;;;;;;;2.20;2.00;;;14.30;99.90;;;;;;5802218;24;20467;-73
2023/03/20 09:18:17;;;;;;;1.80;1.70;;;14.50;99.90;;;;;;5805095;24;20440;-73
2023/03/20 09:20:45;;;;;;;2.10;1.90;;;14.80;99.90;;;;;;5814551;24;20468;-73
2023/03/20 09:23:13;;;;;;;2.70;1.80;;;14.90;99.90;;;;;;5783273;24;20479;-74
2023/03/20 09:25:40;;;;;;;2.53;2.33;;;14.80;99.90;;;;;;5797933;24;20482;-73
2023/03/20 09:28:07;;;;;;;3.00;2.47;;;14.50;99.90;;;;;;5786126;24;20458;-72
2023/03/20 09:30:35;;;;;;;2.90;2.20;;;13.90;99.90;;;;;;5789608;24;21103;-72
2023/03/20 09:33:02;;;;;;;2.20;2.00;;;13.40;99.90;;;;;;5790624;24;20440;-73
2023/03/20 09:35:29;;;;;;;2.47;2.27;;;13.30;99.90;;;;;;5802192;24;20492;-72
2023/03/20 09:37:57;;;;;;;3.03;2.53;;;13.30;99.90;;;;;;5797463;24;20811;-73
2023/03/20 09:40:28;;;;;;;2.87;2.30;;;13.30;99.90;;;;;;5792412;24;20443;-73
2023/03/20 09:43:07;;;;;;;2.10;2.00;;;13.50;99.90;;;;;;5782108;24;20518;-73
2023/03/20 09:45:43;;;;;;;2.27;1.90;;;13.70;99.90;;;;;;5795958;24;20580;-73
2023/03/20 09:48:19;;;;;;;2.80;2.60;;;13.80;99.90;;;;;;5804200;24;20943;-73
2023/03/20 09:50:53;;;;;;;1.80;1.70;;;14.00;99.90;;;;;;5804102;24;20869;-73
2023/03/20 09:53:28;;;;;;;2.60;2.33;;;14.00;99.90;;;;;;5783209;24;20462;-72
2023/03/20 09:55:56;;;;;;;2.40;2.20;;;14.00;99.90;;;;;;5791986;24;20456;-73
2023/03/20 09:58:26;;;;;;;2.07;1.97;;;14.20;99.90;;;;;;5791809;24;20452;-73
2023/03/20 10:00:58;;;;;;;2.10;2.00;;;14.40;99.90;;;;;;5787086;24;20949;-73
2023/03/20 10:03:32;;;;;;;2.47;2.27;;;14.70;99.90;;;;;;5785026;24;20459;-73
2023/03/20 10:06:02;;;;;;;2.13;2.03;;;14.90;99.90;;;;;;5806249;24;20588;-73
2023/03/20 10:08:35;;;;;;;2.10;2.00;;;14.90;99.90;;;;;;5799956;24;20932;-73
2023/03/20 10:11:21;;;;;;;2.53;2.33;;;15.00;99.90;;;;;;5809363;24;20432;-74
2023/03/20 10:14:01;;;;;;;2.73;2.30;;;15.10;99.90;;;;;;5781619;24;20478;-73
2023/03/20 10:16:45;;;;;;;2.77;2.57;;;15.20;99.90;;;;;;5806196;24;20454;-74
2023/03/20 10:19:21;;;;;;;2.13;2.03;;;15.20;99.90;;;;;;5798148;24;20443;-74
2023/03/20 10:21:52;;;;;;;3.00;2.50;;;14.90;99.90;;;;;;5797170;24;21025;-73
2023/03/20 10:24:27;;;;;;;2.83;2.63;;;14.90;99.90;;;;;;5802243;24;20467;-73
2023/03/20 10:26:58;;;;;;;3.07;2.87;;;14.80;99.90;;;;;;5794753;24;20447;-74
2023/03/20 10:29:35;;;;;;;3.17;2.83;;;14.70;99.90;;;;;;5793625;24;20452;-74
2023/03/20 10:32:09;;;;;;;3.17;2.97;;;14.50;99.90;;;;;;5804911;24;20498;-72
2023/03/20 10:34:50;;;;;;;2.90;2.57;;;14.50;99.90;;;;;;5802530;24;20575;-73
2023/03/20 10:37:36;;;;;;;4.23;3.93;;;14.40;99.90;;;;;;5792354;24;20464;-73
2023/03/20 10:40:25;;;;;;;5.30;4.20;;;14.30;99.90;;;;;;5806995;24;20863;-73
2023/03/20 10:42:55;;;;;;;4.77;4.37;;;14.20;99.90;;;;;;5810474;24;20975;-72
2023/03/20 10:45:33;;;;;;;5.23;4.10;;;14.10;99.90;;;;;;5798071;24;21031;-73
2023/03/20 10:48:05;;;;;;;5.23;3.80;;;14.00;99.90;;;;;;5807734;24;20500;-73
2023/03/20 10:50:40;;;;;;;4.43;4.03;;;13.90;99.90;;;;;;5797467;24;20447;-73
2023/03/20 10:53:08;;;;;;;4.10;3.70;;;13.90;99.90;;;;;;5799423;24;20481;-73
2023/03/20 10:55:40;;;;;;;4.30;3.90;;;13.90;99.90;;;;;;5806778;24;20463;-73
2023/03/20 10:58:17;;;;;;;4.50;4.10;;;14.00;99.90;;;;;;5809975;24;20745;-72
2023/03/20 11:00:45;;;;;;;5.03;4.63;;;14.10;99.90;;;;;;5799636;24;20447;-73
2023/03/20 11:03:21;;;;;;;5.10;4.70;;;14.20;99.90;;;;;;5797076;24;20475;-75
2023/03/20 11:05:53;;;;;;;4.53;4.13;;;14.30;99.90;;;;;;5801611;24;20453;-72
2023/03/20 11:08:23;;;;;;;4.27;3.93;;;14.40;99.90;;;;;;5799547;24;20477;-72
2023/03/20 11:11:00;;;;;;;4.13;3.83;;;14.80;99.90;;;;;;5807816;24;20443;-77
2023/03/20 11:13:31;;;;;;;4.97;4.47;;;15.70;99.90;;;;;;5788845;24;20444;-74
2023/03/20 11:16:10;;;;;;;4.63;4.23;;;16.20;99.90;;;;;;5799887;24;21225;-72
2023/03/20 11:18:40;;;;;;;4.57;4.20;;;16.50;99.90;;;;;;5792228;24;20802;-74
2023/03/20 11:21:14;;;;;;;5.17;4.57;;;16.50;99.90;;;;;;5814005;24;20975;-73
2023/03/20 11:23:42;;;;;;;5.40;5.00;;;16.50;99.90;;;;;;5806707;24;20503;-73
2023/03/20 11:26:16;;;;;;;6.07;5.30;;;16.40;99.90;;;;;;5802244;24;20523;-74
2023/03/20 11:28:48;;;;;;;5.80;5.30;;;16.20;99.90;;;;;;5807199;24;20439;-73
2023/03/20 11:31:18;;;;;;;6.23;5.63;;;16.10;99.90;;;;;;5803497;24;20475;-74
2023/03/20 11:33:50;;;;;;;5.70;5.17;;;16.20;99.90;;;;;;5800697;24;20578;-74
2023/03/20 11:36:22;;;;;;;6.20;5.10;;;16.40;99.90;;;;;;5807656;24;20455;-74
2023/03/20 11:38:50;;;;;;;3.90;3.60;;;16.70;99.90;;;;;;5808702;24;20474;-79
2023/03/20 11:41:24;;;;;;;4.70;4.30;;;17.00;99.90;;;;;;5802902;24;20905;-80
2023/03/20 11:43:51;;;;;;;4.47;4.07;;;17.30;99.90;;;;;;5796357;24;20483;-79
2023/03/20 11:46:21;;;;;;;4.70;4.30;;;17.60;99.90;;;;;;5805683;24;20860;-78
2023/03/20 11:49:03;;;;;;;4.30;3.90;;;17.50;99.90;;;;;;5797621;24;21080;-82
2023/03/20 11:51:32;;;;;;;7.40;4.70;;;17.70;99.90;;;;;;5797953;24;21146;-72
2023/03/20 11:54:02;;;;;;;5.30;4.90;;;18.10;99.90;;;;;;5804975;24;20514;-72
2023/03/20 11:56:33;;;;;;;4.87;4.47;;;18.40;99.90;;;;;;5810198;24;20493;-72
2023/03/20 11:59:03;;;;;;;5.40;5.00;;;18.20;99.90;;;;;;5812025;24;20996;-72
2023/03/20 12:01:43;;;;;;;5.13;4.70;;;18.10;99.90;;;;;;5805747;24;20571;-72
2023/03/20 12:04:13;;;;;;;5.37;4.87;;;18.10;99.90;;;;;;5807286;24;21368;-72
2023/03/20 12:06:53;;;;;;;5.13;4.53;;;18.10;99.90;;;;;;5801438;24;20443;-73
2023/03/20 12:09:40;;;;;;;5.73;4.90;;;18.10;99.90;;;;;;5800405;24;20455;-73
2023/03/20 12:12:16;;;;;;;7.30;4.93;;;18.10;99.90;;;;;;5799244;24;20540;-73
2023/03/20 12:14:49;;;;;;;11.23;5.47;;;18.10;99.90;;;;;;5807931;24;20562;-73
2023/03/20 12:17:42;;;;;;;4.57;4.17;;;17.90;99.90;;;;;;5807477;24;20444;-73
2023/03/20 12:20:22;;;;;;;4.70;4.30;;;17.90;99.90;;;;;;5805399;24;20478;-73
2023/03/20 12:22:56;;;;;;;8.67;4.90;;;17.80;99.90;;;;;;5806931;24;20952;-73
2023/03/20 12:25:27;;;;;;;5.20;4.80;;;18.00;99.90;;;;;;5802660;24;20483;-73
2023/03/20 12:28:03;;;;;;;4.60;4.20;;;17.90;99.90;;;;;;5794490;24;20512;-74
2023/03/20 12:30:54;;;;;;;5.13;4.63;;;17.90;99.90;;;;;;5800821;24;20925;-73
2023/03/20 12:33:38;;;;;;;4.47;4.17;;;18.30;99.90;;;;;;5803321;24;20885;-73
2023/03/20 12:36:13;;;;;;;4.80;4.40;;;19.00;99.90;;;;;;5806570;24;20446;-73
2023/03/20 12:38:42;;;;;;;4.53;4.13;;;19.50;99.90;;;;;;5809239;24;20477;-74
2023/03/20 12:41:12;;;;;;;5.03;4.63;;;19.60;99.90;;;;;;5802023;24;20472;-73
2023/03/20 12:44:19;;;;;;;4.83;4.37;;;19.50;99.90;;;;;;5806445;24;20561;-77
2023/03/20 12:46:56;;;;;;;4.60;4.20;;;19.40;99.90;;;;;;5800415;24;20985;-74
2023/03/20 12:49:41;;;;;;;4.57;4.17;;;19.20;99.90;;;;;;5806334;24;20481;-73
2023/03/20 12:52:17;;;;;;;4.20;3.90;;;19.20;99.90;;;;;;5806221;24;20507;-74
2023/03/20 12:55:15;;;;;;;4.67;4.27;;;18.90;99.90;;;;;;5808437;24;20493;-73
2023/03/20 12:57:55;;;;;;;3.67;3.37;;;18.50;99.90;;;;;;5803956;24;20446;-73
2023/03/20 13:00:30;;;;;;;3.70;3.40;;;18.30;99.90;;;;;;5804282;24;20440;-73
2023/03/20 13:03:08;;;;;;;4.07;3.20;;;18.00;99.90;;;;;;5802955;24;20478;-73
2023/03/20 13:05:44;;;;;;;3.73;3.43;;;17.90;99.90;;;;;;5795387;24;20486;-72
2023/03/20 13:08:47;;;;;;;4.10;3.80;;;17.70;99.90;;;;;;5805550;24;20591;-73
2023/03/20 13:11:25;;;;;;;4.13;3.80;;;17.70;99.90;;;;;;5807630;24;20447;-72